Time;durP1;ratioP1;P1;durP2;ratioP2;P2;SDS_P1;SDS_P2;PMS_P1;PMS_P2;Temp;Humidity;BMP_temperature;BMP_pressure;BME280_temperature;BME280_humidity;BME280_pressure;Samples;Min_cycle;Max_cycle;Signal;HPM_P1;HPM_P2
2022/04/02 00:00:55;;;;;;;17.98;9.40;;;;;;;0.35;69.74;101422.34;5071888;28;20468;-55
2022/04/02 00:03:21;;;;;;;17.77;9.70;;;;;;;0.34;70.57;101422.53;5075747;28;20474;-54
2022/04/02 00:05:46;;;;;;;17.05;10.23;;;;;;;0.33;70.58;101426.34;5075874;28;20044;-55
2022/04/02 00:08:11;;;;;;;16.30;9.57;;;;;;;0.31;69.54;101426.56;5076396;28;20115;-55
2022/04/02 00:10:37;;;;;;;17.75;9.63;;;;;;;0.32;70.19;101430.13;5075996;28;20029;-55
2022/04/02 00:13:03;;;;;;;15.60;9.18;;;;;;;0.28;70.07;101436.00;5075846;28;20101;-55
2022/04/02 00:15:28;;;;;;;16.70;9.40;;;;;;;0.29;69.98;101428.66;5075774;28;20032;-51
2022/04/02 00:17:53;;;;;;;15.57;9.70;;;;;;;0.30;70.28;101438.50;5075728;28;20021;-53
2022/04/02 00:20:18;;;;;;;16.25;9.25;;;;;;;0.29;70.09;101434.94;5075728;28;20024;-54
2022/04/02 00:25:28;;;;;;;18.27;10.00;;;;;;;0.28;69.30;101436.00;5075288;28;20093;-53
2022/04/02 00:27:53;;;;;;;18.08;9.10;;;;;;;0.30;70.42;101436.63;5075963;28;20017;-55
2022/04/02 00:30:18;;;;;;;17.38;9.82;;;;;;;0.30;70.47;101442.06;5075729;28;20400;-55
2022/04/02 00:32:43;;;;;;;15.50;9.63;;;;;;;0.28;70.70;101441.44;5075848;28;20033;-55
2022/04/02 00:35:09;;;;;;;17.20;10.35;;;;;;;0.27;70.06;101436.22;5075729;28;20029;-55
2022/04/02 00:37:34;;;;;;;16.33;9.30;;;;;;;0.22;69.67;101436.91;5075764;28;20028;-55
2022/04/02 00:40:00;;;;;;;16.50;9.77;;;;;;;0.20;70.40;101435.44;5075676;28;20028;-55
2022/04/02 00:42:25;;;;;;;16.30;9.73;;;;;;;0.19;71.04;101431.91;5075923;28;20028;-54
2022/04/02 00:44:51;;;;;;;17.08;10.05;;;;;;;0.17;70.61;101439.44;5075776;28;20475;-55
2022/04/02 00:47:16;;;;;;;17.63;9.50;;;;;;;0.18;71.46;101426.69;5075661;28;20048;-55
2022/04/02 00:49:41;;;;;;;17.83;10.10;;;;;;;0.16;71.32;101435.06;5075676;28;20028;-54
2022/04/02 00:52:06;;;;;;;17.33;9.98;;;;;;;0.15;71.20;101431.50;5075456;28;20024;-55
2022/04/02 00:54:33;;;;;;;17.42;9.73;;;;;;;0.16;70.71;101435.06;5075568;28;20414;-54
2022/04/02 00:56:59;;;;;;;15.77;9.88;;;;;;;0.15;70.46;101434.22;5075180;28;20082;-54
2022/04/02 00:59:25;;;;;;;15.32;9.10;;;;;;;0.15;70.75;101422.50;5075431;28;20036;-55
2022/04/02 01:01:50;;;;;;;16.13;9.65;;;;;;;0.18;70.63;101437.56;5074978;28;20029;-54
2022/04/02 01:04:15;;;;;;;16.92;10.18;;;;;;;0.11;70.54;101430.28;5075344;28;20048;-55
2022/04/02 01:06:42;;;;;;;16.70;10.00;;;;;;;0.12;70.52;101431.94;5075173;28;20089;-53
2022/04/02 01:09:09;;;;;;;18.25;9.50;;;;;;;0.12;70.60;101437.38;5075435;28;20028;-55
2022/04/02 01:11:45;;;;;;;16.45;9.75;;;;;;;0.10;71.14;101436.78;5075434;28;20025;-54
2022/04/02 01:14:11;;;;;;;19.05;9.68;;;;;;;0.10;70.78;101436.78;5075268;28;20024;-56
2022/04/02 01:16:38;;;;;;;18.48;10.23;;;;;;;0.12;70.39;101445.56;5075039;28;20029;-53
2022/04/02 01:19:04;;;;;;;15.50;9.98;;;;;;;0.10;70.33;101444.94;5074665;28;20071;-54
2022/04/02 01:21:31;;;;;;;16.77;9.60;;;;;;;0.11;70.67;101443.06;5074377;28;20116;-55
2022/04/02 01:23:57;;;;;;;16.55;9.55;;;;;;;0.11;70.70;101441.16;5075276;28;20119;-54
2022/04/02 01:26:22;;;;;;;16.70;9.02;;;;;;;0.11;70.34;101437.63;5074552;28;20465;-55
2022/04/02 01:28:53;;;;;;;17.10;9.32;;;;;;;0.11;69.75;101440.34;5075010;28;20061;-54
2022/04/02 01:31:20;;;;;;;16.58;9.70;;;;;;;0.12;69.63;101436.56;5074588;28;20135;-55
2022/04/02 01:33:45;;;;;;;17.65;10.07;;;;;;;0.10;69.57;101434.03;5074358;28;20079;-53
2022/04/02 01:36:11;;;;;;;16.35;9.27;;;;;;;0.06;69.47;101432.84;5074548;28;20056;-53
2022/04/02 01:38:36;;;;;;;15.57;9.02;;;;;;;0.12;69.93;101433.84;5074463;28;20079;-54
2022/04/02 01:41:01;;;;;;;14.75;9.13;;;;;;;0.06;69.67;101424.69;5074961;28;20020;-53
2022/04/02 01:43:27;;;;;;;16.38;9.82;;;;;;;0.05;70.17;101425.72;5074238;28;20480;-53
2022/04/02 01:45:54;;;;;;;17.25;9.60;;;;;;;-0.01;69.14;101422.00;5073927;28;20021;-54
2022/04/02 01:48:19;;;;;;;16.67;9.70;;;;;;;0.01;70.02;101423.69;5074577;28;20016;-55
2022/04/02 01:50:45;;;;;;;18.33;10.13;;;;;;;-0.04;69.67;101427.88;5074733;28;20055;-55
2022/04/02 01:53:10;;;;;;;16.13;9.30;;;;;;;-0.04;69.63;101435.22;5074323;28;20389;-55
2022/04/02 01:55:35;;;;;;;16.85;10.10;;;;;;;-0.02;70.27;101428.50;5073885;28;20028;-51
2022/04/02 01:58:01;;;;;;;16.15;9.13;;;;;;;-0.04;69.47;101437.94;5074441;28;20124;-54
2022/04/02 02:00:26;;;;;;;15.82;8.95;;;;;;;-0.06;69.70;101442.75;5074044;28;20074;-52
2022/04/02 02:02:51;;;;;;;16.67;9.60;;;;;;;-0.07;69.67;101443.81;5074322;28;20512;-54
2022/04/02 02:05:17;;;;;;;15.98;9.65;;;;;;;-0.09;69.88;101444.03;5073867;28;20045;-52
2022/04/02 02:07:49;;;;;;;18.25;9.40;;;;;;;-0.13;70.34;101434.63;5074102;28;20472;-55
2022/04/02 02:10:14;;;;;;;17.83;9.80;;;;;;;-0.12;69.90;101440.94;5074360;28;20024;-54
2022/04/02 02:12:39;;;;;;;16.38;9.02;;;;;;;-0.12;70.17;101435.50;5074348;28;20082;-54
2022/04/02 02:15:05;;;;;;;15.25;9.43;;;;;;;-0.06;70.06;101443.59;5073010;28;20070;-53
2022/04/02 02:17:30;;;;;;;15.68;9.40;;;;;;;-0.09;69.89;101449.47;5073824;28;20081;-54
2022/04/02 02:19:56;;;;;;;17.02;9.23;;;;;;;-0.07;70.36;101449.25;5073555;28;20025;-55
2022/04/02 02:22:21;;;;;;;15.90;9.18;;;;;;;-0.12;70.35;101451.81;5074083;28;20032;-55
2022/04/02 02:24:46;;;;;;;15.88;9.13;;;;;;;-0.07;70.05;101452.81;5073319;28;20487;-55
2022/04/02 02:27:11;;;;;;;15.38;8.85;;;;;;;-0.07;70.08;101450.09;5073662;28;20060;-54
2022/04/02 02:29:37;;;;;;;16.35;9.65;;;;;;;-0.10;69.74;101455.16;5075570;28;20114;-55
2022/04/02 02:32:02;;;;;;;18.17;9.25;;;;;;;-0.10;70.65;101455.97;5093797;28;20058;-54
2022/04/02 02:37:12;;;;;;;;;;;;;;;-0.03;70.02;101467.63;5094448;28;20399;-54
2022/04/02 02:39:37;;;;;;;16.00;8.85;;;;;;;-0.13;69.84;101456.41;5093831;28;19908;-54
2022/04/02 02:42:03;;;;;;;16.35;9.40;;;;;;;-0.17;70.76;101458.72;5093771;28;20035;-53
2022/04/02 02:44:28;;;;;;;15.90;9.40;;;;;;;-0.17;70.40;101463.34;5092745;28;20042;-53
2022/04/02 02:46:53;;;;;;;15.00;8.63;;;;;;;-0.14;70.02;101457.44;5093324;28;20070;-55
2022/04/02 02:49:18;;;;;;;16.17;9.27;;;;;;;-0.11;68.92;101462.47;5093335;28;20085;-55
2022/04/02 02:51:44;;;;;;;15.52;9.02;;;;;;;-0.08;69.00;101462.03;5093536;28;20464;-55
2022/04/02 02:54:09;;;;;;;15.55;9.20;;;;;;;-0.05;68.35;101463.47;5093607;28;20055;-53
2022/04/02 02:56:34;;;;;;;16.55;9.30;;;;;;;-0.02;67.47;101463.03;5093580;28;20404;-55
2022/04/02 02:59:00;;;;;;;17.25;9.15;;;;;;;-0.02;68.38;101466.56;5075223;28;20118;-54
2022/04/02 03:01:25;;;;;;;13.55;8.52;;;;;;;0.02;66.85;101461.53;5093312;28;20027;-55
2022/04/02 03:03:50;;;;;;;15.15;8.65;;;;;;;0.09;66.88;101469.66;5093189;28;20020;-55
2022/04/02 03:06:15;;;;;;;11.90;8.25;;;;;;;0.06;66.83;101479.09;5093439;28;20012;-54
2022/04/02 03:08:41;;;;;;;13.80;8.00;;;;;;;0.05;66.88;101463.00;5093459;28;20051;-54
2022/04/02 03:11:06;;;;;;;15.77;8.88;;;;;;;0.07;66.77;101469.03;5093307;28;20032;-55
2022/04/02 03:13:32;;;;;;;14.88;8.75;;;;;;;0.11;66.08;101462.94;5093136;28;20046;-53
2022/04/02 03:15:57;;;;;;;16.25;8.48;;;;;;;0.07;67.31;101466.31;5093754;28;20039;-52
2022/04/02 03:18:22;;;;;;;15.20;9.15;;;;;;;0.07;66.70;101466.31;5092935;28;20019;-52
2022/04/02 03:20:47;;;;;;;14.95;9.10;;;;;;;0.06;65.67;101464.63;5092679;28;20028;-53
2022/04/02 03:23:13;;;;;;;15.02;8.82;;;;;;;0.09;65.23;101472.38;5092782;28;20102;-54
2022/04/02 03:25:38;;;;;;;16.15;9.25;;;;;;;0.05;65.91;101471.16;5093246;28;20020;-55
2022/04/02 03:28:04;;;;;;;15.30;8.88;;;;;;;0.06;65.88;101481.81;5092835;28;20035;-54
2022/04/02 03:30:30;;;;;;;18.70;9.55;;;;;;;0.04;66.21;101473.03;5093333;28;20038;-54
2022/04/02 03:32:55;;;;;;;14.55;8.63;;;;;;;0.02;66.57;101477.84;5092256;28;20027;-54
2022/04/02 03:35:20;;;;;;;14.75;8.88;;;;;;;-0.01;67.04;101481.84;5092480;28;20020;-52
2022/04/02 03:37:48;;;;;;;15.30;8.90;;;;;;;-0.04;67.07;101485.00;5095501;28;20537;-53
2022/04/02 03:40:20;;;;;;;15.52;8.88;;;;;;;-0.07;67.80;101482.75;5097313;28;20077;-53
2022/04/02 03:42:46;;;;;;;18.77;9.20;;;;;;;-0.09;68.25;101484.84;5096912;28;20036;-53
2022/04/02 03:45:14;;;;;;;14.25;8.95;;;;;;;-0.16;68.76;101481.34;5096977;28;20027;-52
2022/04/02 03:47:40;;;;;;;16.40;9.20;;;;;;;-0.18;69.11;101486.97;5096878;28;20035;-54
2022/04/02 03:50:06;;;;;;;18.10;9.80;;;;;;;-0.23;69.01;101499.56;5097172;28;20027;-54
2022/04/02 03:52:31;;;;;;;17.90;9.45;;;;;;;-0.28;69.24;101492.03;5097263;28;20032;-53
2022/04/02 03:54:57;;;;;;;15.60;9.10;;;;;;;-0.33;70.52;101495.41;5096864;28;20028;-54
2022/04/02 03:57:22;;;;;;;18.15;9.73;;;;;;;-0.31;69.84;101492.50;5097022;28;20103;-54
2022/04/02 03:59:48;;;;;;;15.32;9.70;;;;;;;-0.36;70.31;101495.03;5097037;28;20036;-53
2022/04/02 04:02:13;;;;;;;15.65;9.45;;;;;;;-0.35;71.12;101499.41;5096789;28;20081;-53
2022/04/02 04:04:39;;;;;;;16.58;9.48;;;;;;;-0.39;70.83;101503.63;5096623;28;20044;-53
2022/04/02 04:07:06;;;;;;;14.75;9.07;;;;;;;-0.42;70.78;101502.16;5096759;28;20028;-54
2022/04/02 04:09:31;;;;;;;15.23;9.43;;;;;;;-0.45;71.11;101501.75;5096564;28;20555;-54
2022/04/02 04:11:57;;;;;;;17.00;9.95;;;;;;;-0.50;70.99;101503.25;5096545;28;20089;-55
2022/04/02 04:14:25;;;;;;;18.35;10.00;;;;;;;-0.51;71.66;101514.31;5096751;28;20158;-54
2022/04/02 04:16:51;;;;;;;14.75;8.60;;;;;;;-0.46;70.89;101506.38;5096622;28;20035;-56
2022/04/02 04:19:17;;;;;;;16.67;9.40;;;;;;;-0.48;71.15;101511.19;5096425;28;20052;-54
2022/04/02 04:21:43;;;;;;;16.75;9.05;;;;;;;-0.53;71.21;101514.56;5096538;28;20095;-55
2022/04/02 04:24:09;;;;;;;17.55;9.40;;;;;;;-0.56;71.25;101519.59;5096447;28;20031;-52
2022/04/02 04:26:35;;;;;;;15.77;9.57;;;;;;;-0.57;71.58;101502.47;5096064;28;20054;-50
2022/04/02 04:29:00;;;;;;;15.95;9.30;;;;;;;-0.58;71.49;101511.66;5096363;28;20027;-54
2022/04/02 04:31:25;;;;;;;15.05;8.80;;;;;;;-0.58;71.04;101511.66;5096241;28;20523;-52
2022/04/02 04:33:51;;;;;;;17.27;9.32;;;;;;;-0.61;71.41;101512.06;5096043;28;20115;-54
2022/04/02 04:36:20;;;;;;;15.70;9.40;;;;;;;-0.57;71.41;101510.63;5096139;28;20049;-54
2022/04/02 04:38:46;;;;;;;15.95;8.75;;;;;;;-0.58;71.72;101500.78;5096014;28;20400;-53
2022/04/02 04:41:12;;;;;;;16.02;8.50;;;;;;;-0.56;71.31;101512.25;5095981;28;20028;-53
2022/04/02 04:43:41;;;;;;;15.68;8.73;;;;;;;-0.62;71.21;101510.41;5096173;28;20024;-53
2022/04/02 04:46:06;;;;;;;17.35;9.18;;;;;;;-0.65;70.75;101513.53;5095675;28;20031;-52
2022/04/02 04:48:32;;;;;;;14.57;8.63;;;;;;;-0.63;71.26;101527.75;5095732;28;20050;-53
2022/04/02 04:50:57;;;;;;;15.00;8.60;;;;;;;-0.66;71.66;101523.59;5095830;28;20032;-53
2022/04/02 04:53:22;;;;;;;17.00;8.73;;;;;;;-0.65;72.36;101529.84;5095702;28;20020;-53
2022/04/02 04:55:48;;;;;;;18.15;8.68;;;;;;;-0.63;71.39;101530.47;5095716;28;20076;-51
2022/04/02 04:58:13;;;;;;;16.45;8.23;;;;;;;-0.66;71.53;101536.34;5095711;28;20036;-55
2022/04/02 05:00:41;;;;;;;14.13;8.30;;;;;;;-0.70;70.93;101535.94;5095515;28;20055;-54
2022/04/02 05:03:08;;;;;;;17.85;8.27;;;;;;;-0.68;71.45;101547.44;5095460;28;20036;-52
2022/04/02 05:05:33;;;;;;;16.08;7.97;;;;;;;-0.70;71.68;101544.06;5095493;28;20123;-52
2022/04/02 05:08:00;;;;;;;16.77;9.02;;;;;;;-0.67;71.34;101542.84;5095588;28;20107;-52
2022/04/02 05:10:25;;;;;;;15.38;8.48;;;;;;;-0.69;71.84;101553.09;5095415;28;20035;-55
2022/04/02 05:12:51;;;;;;;14.70;8.65;;;;;;;-0.65;71.96;101551.59;5095518;28;20430;-54
2022/04/02 05:15:16;;;;;;;16.75;9.52;;;;;;;-0.67;72.20;101548.28;5095296;28;20028;-51
2022/04/02 05:17:42;;;;;;;16.25;8.85;;;;;;;-0.69;71.63;101555.78;5094976;28;20028;-55
2022/04/02 05:20:10;;;;;;;16.55;9.27;;;;;;;-0.69;72.35;101559.34;5095299;28;20154;-53
2022/04/02 05:22:36;;;;;;;16.23;9.10;;;;;;;-0.72;72.24;101558.94;5094881;28;20031;-53
2022/04/02 05:25:01;;;;;;;19.15;9.98;;;;;;;-0.70;72.38;101556.84;5094787;28;20032;-53
2022/04/02 05:27:28;;;;;;;15.90;9.20;;;;;;;-0.65;72.04;101570.63;5095109;28;20042;-53
2022/04/02 05:29:53;;;;;;;19.38;9.95;;;;;;;-0.67;72.46;101576.28;5095090;28;20024;-53
2022/04/02 05:32:19;;;;;;;18.33;9.68;;;;;;;-0.65;72.34;101570.63;5094996;28;20094;-51
2022/04/02 05:34:44;;;;;;;19.63;9.93;;;;;;;-0.63;72.74;101585.69;5095051;28;20020;-51
2022/04/02 05:37:09;;;;;;;19.20;9.70;;;;;;;-0.60;73.02;101584.41;5094651;28;20044;-53
2022/04/02 05:39:35;;;;;;;17.40;9.00;;;;;;;-0.60;72.82;101580.84;5095055;28;20036;-52
2022/04/02 05:42:00;;;;;;;16.58;8.50;;;;;;;-0.55;72.17;101594.66;5094851;28;20024;-54
2022/04/02 05:44:26;;;;;;;17.30;9.20;;;;;;;-0.54;72.61;101588.16;5094719;28;20145;-54
2022/04/02 05:46:51;;;;;;;17.67;9.27;;;;;;;-0.51;71.41;101604.03;5094820;28;20028;-55
2022/04/02 05:49:17;;;;;;;19.10;8.65;;;;;;;-0.50;71.97;101613.84;5094623;28;20112;-54
2022/04/02 05:51:42;;;;;;;15.82;8.40;;;;;;;-0.48;71.57;101609.91;5094615;28;20024;-52
2022/04/02 05:54:08;;;;;;;16.83;8.55;;;;;;;-0.47;72.32;101613.44;5094527;28;20020;-54
2022/04/02 05:56:34;;;;;;;14.18;8.27;;;;;;;-0.43;72.69;101608.41;5094816;28;20032;-52
2022/04/02 05:58:59;;;;;;;17.05;8.85;;;;;;;-0.40;72.26;101602.56;5087359;28;20024;-53
2022/04/02 06:01:25;;;;;;;17.80;9.35;;;;;;;-0.40;72.05;101610.72;5083199;28;20106;-54
2022/04/02 06:03:51;;;;;;;15.63;8.38;;;;;;;-0.39;72.11;101615.09;5083176;28;20107;-53
2022/04/02 06:06:16;;;;;;;15.40;8.40;;;;;;;-0.35;72.53;101621.75;5084768;28;20095;-53
2022/04/02 06:08:41;;;;;;;14.63;8.23;;;;;;;-0.35;72.56;101614.47;5083109;28;20177;-52
2022/04/02 06:11:06;;;;;;;16.15;8.50;;;;;;;-0.33;72.36;101628.66;5085607;28;20500;-55
2022/04/02 06:13:33;;;;;;;17.23;8.20;;;;;;;-0.28;72.72;101630.72;5082999;28;20105;-55
2022/04/02 06:15:58;;;;;;;15.27;8.38;;;;;;;-0.25;72.27;101632.22;5082024;28;20025;-54
2022/04/02 06:18:24;;;;;;;14.95;8.10;;;;;;;-0.22;72.39;101634.47;5075983;28;20468;-60
2022/04/02 06:20:49;;;;;;;16.80;8.50;;;;;;;-0.19;72.55;101632.16;5073543;28;20028;-52
2022/04/02 06:23:15;;;;;;;15.65;8.98;;;;;;;-0.14;72.42;101633.41;5054784;28;20094;-56
2022/04/02 06:25:40;;;;;;;18.35;8.15;;;;;;;-0.12;72.06;101640.31;5073576;28;20021;-56
2022/04/02 06:28:06;;;;;;;17.95;8.70;;;;;;;-0.10;72.55;101638.22;5073744;28;20429;-56
2022/04/02 06:30:31;;;;;;;16.85;8.52;;;;;;;-0.01;71.48;101646.97;5073702;28;20350;-56
2022/04/02 06:32:56;;;;;;;15.60;8.30;;;;;;;0.03;71.85;101650.09;5073647;28;20107;-54
2022/04/02 06:35:22;;;;;;;16.02;8.13;;;;;;;0.11;71.39;101658.00;5073540;28;20276;-55
2022/04/02 06:37:50;;;;;;;16.33;8.13;;;;;;;0.17;70.81;101651.69;5073063;28;20024;-56
2022/04/02 06:40:16;;;;;;;16.02;8.02;;;;;;;0.28;71.15;101659.19;5073609;28;20127;-55
2022/04/02 06:42:42;;;;;;;16.67;8.15;;;;;;;0.29;70.64;101658.13;5073478;28;20039;-55
2022/04/02 06:45:08;;;;;;;15.75;7.88;;;;;;;0.35;70.25;101656.44;5073383;28;20467;-53
2022/04/02 06:47:34;;;;;;;14.95;8.00;;;;;;;0.39;70.08;101668.53;5073251;28;20055;-53
2022/04/02 06:50:06;;;;;;;17.40;8.50;;;;;;;0.44;70.46;101668.72;5082547;28;20472;-54
2022/04/02 06:52:32;;;;;;;19.73;8.80;;;;;;;0.50;69.53;101668.91;5073826;28;20032;-55
2022/04/02 06:54:57;;;;;;;14.88;8.38;;;;;;;0.54;70.06;101670.16;5073118;28;20035;-51
2022/04/02 06:57:23;;;;;;;16.27;8.30;;;;;;;0.57;69.67;101676.00;5072870;28;20032;-55
2022/04/02 06:59:49;;;;;;;16.52;8.30;;;;;;;0.62;70.16;101683.50;5072908;28;20047;-55
2022/04/02 07:02:20;;;;;;;16.65;8.20;;;;;;;0.68;69.88;101679.88;5072721;28;20024;-51
2022/04/02 07:04:45;;;;;;;16.23;7.85;;;;;;;0.70;70.22;101683.25;5072770;28;20053;-52
2022/04/02 07:07:10;;;;;;;16.65;8.45;;;;;;;0.80;70.54;101684.63;5073071;28;20086;-53
2022/04/02 07:09:36;;;;;;;15.80;8.23;;;;;;;0.78;68.86;101687.59;5072923;28;20105;-51
2022/04/02 07:12:02;;;;;;;14.88;7.97;;;;;;;0.82;68.35;101696.97;5073028;28;20376;-57
2022/04/02 07:14:28;;;;;;;17.48;8.30;;;;;;;0.85;68.17;101690.28;5073294;28;20032;-50
2022/04/02 07:16:53;;;;;;;16.17;8.38;;;;;;;0.90;69.24;101698.63;5073160;28;20149;-52
2022/04/02 07:19:20;;;;;;;16.42;8.10;;;;;;;0.92;69.03;101697.34;5072296;28;20468;-50
2022/04/02 07:21:46;;;;;;;18.17;8.60;;;;;;;0.94;68.63;101697.13;5071511;28;20032;-53
2022/04/02 07:24:13;;;;;;;16.48;8.48;;;;;;;0.99;69.25;101700.00;5072283;28;20029;-50
2022/04/02 07:26:39;;;;;;;16.27;8.90;;;;;;;1.00;68.01;101703.56;5072565;28;20017;-52
2022/04/02 07:29:07;;;;;;;15.07;8.00;;;;;;;1.10;67.13;101714.81;5072687;28;20476;-49
2022/04/02 07:31:33;;;;;;;15.65;8.30;;;;;;;1.10;67.89;101714.81;5072512;28;20031;-51
2022/04/02 07:33:59;;;;;;;15.77;8.63;;;;;;;1.14;67.97;101720.66;5072471;28;20025;-53
2022/04/02 07:36:43;;;;;;;15.98;8.27;;;;;;;1.18;67.29;101717.25;5072589;28;20103;-51
2022/04/02 07:39:21;;;;;;;15.27;8.63;;;;;;;1.27;67.79;101726.00;5072295;28;20032;-53
2022/04/02 07:42:02;;;;;;;16.63;9.15;;;;;;;1.27;67.30;101723.28;5072027;28;20036;-51
2022/04/02 07:44:54;;;;;;;17.73;8.75;;;;;;;1.35;67.50;101727.63;5072179;28;20025;-50
2022/04/02 07:47:24;;;;;;;16.45;9.00;;;;;;;1.45;66.86;101730.69;5072013;28;20052;-51
2022/04/02 07:49:54;;;;;;;16.30;8.77;;;;;;;1.56;66.72;101734.56;5072394;28;20106;-54
2022/04/02 07:52:22;;;;;;;17.77;9.10;;;;;;;1.58;66.72;101737.06;5072632;28;20033;-53
2022/04/02 07:54:54;;;;;;;17.23;9.25;;;;;;;1.53;66.04;101735.88;5072720;28;20029;-50
2022/04/02 07:57:24;;;;;;;19.20;9.40;;;;;;;1.54;65.97;101745.72;5072687;28;20063;-50
2022/04/02 07:59:56;;;;;;;17.80;9.07;;;;;;;1.58;66.08;101742.53;5072625;28;20039;-53
2022/04/02 08:02:38;;;;;;;19.08;9.40;;;;;;;1.62;67.28;101755.50;5072766;28;20538;-54
2022/04/02 08:05:10;;;;;;;15.07;8.98;;;;;;;1.70;66.24;101744.28;5072448;28;20055;-53
2022/04/02 08:07:44;;;;;;;16.85;9.50;;;;;;;1.70;65.22;101757.94;5072669;28;20043;-50
2022/04/02 08:10:13;;;;;;;16.50;8.93;;;;;;;1.72;65.20;101746.81;5072781;28;20028;-54
2022/04/02 08:12:40;;;;;;;16.42;9.30;;;;;;;1.77;65.93;101757.06;5072446;28;20460;-53
2022/04/02 08:15:14;;;;;;;16.05;8.63;;;;;;;1.70;64.90;101743.47;5072205;28;20469;-50
2022/04/02 08:17:41;;;;;;;17.63;8.98;;;;;;;1.80;66.64;101748.41;5072686;28;20040;-53
2022/04/02 08:20:07;;;;;;;19.33;9.68;;;;;;;1.95;66.44;101761.69;5072367;28;20028;-51
2022/04/02 08:22:33;;;;;;;15.27;8.55;;;;;;;2.09;65.57;101756.91;5054905;28;20029;-50
2022/04/02 08:24:59;;;;;;;18.38;9.40;;;;;;;2.16;66.01;101754.97;5076018;28;20035;-51
2022/04/02 08:27:30;;;;;;;19.17;9.88;;;;;;;2.26;66.01;101752.56;5075967;28;20067;-52
2022/04/02 08:30:10;;;;;;;18.10;8.98;;;;;;;2.36;65.87;101764.84;5076131;28;20139;-50
2022/04/02 08:32:58;;;;;;;18.40;9.40;;;;;;;2.38;65.22;101762.69;5075932;28;20131;-54
2022/04/02 08:36:00;;;;;;;17.13;9.20;;;;;;;2.33;65.50;101761.50;5076001;28;20413;-53
2022/04/02 08:38:40;;;;;;;17.63;8.95;;;;;;;2.25;64.78;101770.00;5075978;28;20029;-53
2022/04/02 08:41:40;;;;;;;15.57;8.88;;;;;;;2.33;65.18;101771.56;5076098;28;20025;-53
2022/04/02 08:44:52;;;;;;;18.83;9.15;;;;;;;2.37;65.45;101771.94;5069648;28;20040;-54
2022/04/02 08:47:46;;;;;;;17.02;8.80;;;;;;;2.47;65.22;101756.69;5075571;28;20055;-54
2022/04/02 08:50:15;;;;;;;16.90;8.75;;;;;;;2.57;64.69;101777.19;5075966;28;20033;-51
2022/04/02 08:52:51;;;;;;;17.50;8.27;;;;;;;2.57;65.56;101779.91;5075743;28;20016;-54
2022/04/02 08:55:39;;;;;;;17.95;9.25;;;;;;;2.47;64.98;101780.44;5075545;28;20408;-51
2022/04/02 08:58:11;;;;;;;16.95;8.77;;;;;;;2.46;65.60;101776.88;5075660;28;20060;-54
2022/04/02 09:00:42;;;;;;;17.48;9.50;;;;;;;2.45;65.41;101788.06;5075466;28;20392;-54
2022/04/02 09:03:35;;;;;;;19.67;9.02;;;;;;;2.51;66.64;101781.66;5075471;28;20031;-53
2022/04/02 09:06:47;;;;;;;18.33;9.18;;;;;;;2.77;65.36;101790.56;5075531;28;20374;-51
2022/04/02 09:09:33;;;;;;;17.50;8.88;;;;;;;2.83;65.06;101791.56;5075391;28;20024;-51
2022/04/02 09:12:23;;;;;;;17.95;9.25;;;;;;;2.88;62.92;101805.38;5075478;28;20028;-52
2022/04/02 09:15:11;;;;;;;17.65;9.15;;;;;;;2.83;62.63;101814.28;5075322;28;20028;-52
2022/04/02 09:17:36;;;;;;;17.52;8.93;;;;;;;2.75;63.81;101811.81;5075355;28;20032;-48
2022/04/02 09:20:38;;;;;;;17.63;8.77;;;;;;;2.78;63.06;101808.66;5075248;28;20449;-50
2022/04/02 09:23:09;;;;;;;16.65;8.32;;;;;;;2.78;63.54;101803.19;5075103;28;20024;-55
2022/04/02 09:26:04;;;;;;;17.73;9.60;;;;;;;2.79;63.36;101808.41;5074862;28;20036;-54
2022/04/02 09:28:42;;;;;;;18.13;9.75;;;;;;;2.86;63.89;101808.31;5074861;28;20024;-54
2022/04/02 09:31:40;;;;;;;18.95;9.07;;;;;;;3.16;62.39;101806.69;5075145;28;20039;-53
2022/04/02 09:34:22;;;;;;;17.25;9.05;;;;;;;3.26;62.06;101813.25;5073878;28;20106;-54
2022/04/02 09:37:04;;;;;;;17.52;9.30;;;;;;;3.33;62.78;101809.56;5074727;28;20079;-53
2022/04/02 09:39:52;;;;;;;18.77;9.57;;;;;;;3.46;62.97;101817.56;5074869;28;20024;-52
2022/04/02 09:42:20;;;;;;;17.55;9.35;;;;;;;3.63;61.80;101811.41;5074935;28;20033;-53
2022/04/02 09:45:05;;;;;;;16.75;8.60;;;;;;;3.79;62.40;101823.59;5074991;28;20047;-54
2022/04/02 09:47:53;;;;;;;18.70;9.00;;;;;;;3.74;61.11;101811.41;5074442;28;20540;-54
2022/04/02 09:50:21;;;;;;;16.25;8.05;;;;;;;3.53;59.26;101814.75;5074765;28;20120;-54
2022/04/02 09:53:17;;;;;;;18.23;8.57;;;;;;;3.45;58.67;101818.66;5074549;28;20121;-55
2022/04/02 09:55:52;;;;;;;17.65;9.52;;;;;;;3.72;58.91;101815.47;5074560;28;20055;-53
2022/04/02 09:58:44;;;;;;;17.38;9.40;;;;;;;4.07;60.10;101817.38;5074757;28;20036;-50
2022/04/02 10:01:41;;;;;;;17.50;9.50;;;;;;;4.39;59.97;101808.81;5074372;28;20063;-52
2022/04/02 10:04:44;;;;;;;19.30;9.63;;;;;;;4.52;58.11;101808.56;5068497;28;20048;-52
2022/04/02 10:07:25;;;;;;;17.27;8.95;;;;;;;4.45;59.37;101807.00;5074130;28;20039;-52
2022/04/02 10:09:54;;;;;;;17.08;9.10;;;;;;;4.40;58.25;101801.41;5074182;28;20105;-53
2022/04/02 10:12:23;;;;;;;19.25;9.27;;;;;;;4.27;58.46;101802.50;5056156;28;20060;-51
2022/04/02 10:14:56;;;;;;;16.95;9.40;;;;;;;4.23;59.15;101799.41;5074514;28;20035;-53
2022/04/02 10:17:25;;;;;;;19.00;9.60;;;;;;;4.18;58.89;101802.88;5074235;28;20020;-53
2022/04/02 10:19:53;;;;;;;18.63;9.70;;;;;;;4.13;59.21;101800.03;5074139;28;20024;-53
2022/04/02 10:22:25;;;;;;;16.73;9.20;;;;;;;3.93;58.88;101797.63;5073968;28;20036;-50
2022/04/02 10:24:51;;;;;;;18.40;9.35;;;;;;;3.67;58.96;101804.41;5074007;28;20436;-51
2022/04/02 10:27:36;;;;;;;18.15;8.48;;;;;;;3.57;59.79;101803.09;5073982;28;20032;-51
2022/04/02 10:30:01;;;;;;;18.67;8.70;;;;;;;3.42;60.19;101802.69;5074095;28;20115;-51
2022/04/02 10:33:26;;;;;;;18.38;8.63;;;;;;;3.36;60.44;101800.91;5073668;28;20116;-51
2022/04/02 10:35:45;;;;;;;17.85;9.00;;;;;;;3.21;59.65;101809.53;5073522;28;20032;-51
2022/04/02 10:38:32;;;;;;;18.42;8.25;;;;;;;3.17;59.96;101798.22;5073531;28;20472;-54
2022/04/02 10:40:58;;;;;;;21.08;9.57;;;;;;;3.16;61.06;101807.50;5073801;28;20031;-53
2022/04/02 10:43:26;;;;;;;19.80;9.70;;;;;;;3.15;61.36;101803.09;5073835;28;20028;-52
2022/04/02 10:45:51;;;;;;;19.17;8.90;;;;;;;3.12;60.29;101811.75;5072967;28;20025;-54
2022/04/02 10:48:26;;;;;;;14.95;7.95;;;;;;;3.14;60.26;101801.41;5073271;28;20373;-54
2022/04/02 10:50:54;;;;;;;17.38;8.00;;;;;;;3.07;59.47;101801.50;5073516;28;20214;-55
2022/04/02 10:53:22;;;;;;;16.45;8.02;;;;;;;3.12;59.88;101809.88;5055454;28;20028;-53
2022/04/02 10:55:52;;;;;;;15.68;7.88;;;;;;;3.17;59.17;101791.91;5073559;28;20033;-54
2022/04/02 10:58:20;;;;;;;17.95;8.57;;;;;;;3.26;58.44;101798.72;5073260;28;20039;-54
2022/04/02 11:00:46;;;;;;;17.40;8.52;;;;;;;3.38;57.98;101799.59;5073107;28;20024;-52
2022/04/02 11:03:39;;;;;;;17.73;8.52;;;;;;;3.59;58.82;101798.19;5073215;28;20028;-53
2022/04/02 11:06:05;;;;;;;16.45;8.50;;;;;;;3.74;56.73;101791.44;5054820;28;20040;-53
2022/04/02 11:08:31;;;;;;;16.95;8.60;;;;;;;3.90;57.65;101800.84;5072756;28;20160;-52
2022/04/02 11:10:59;;;;;;;17.27;8.55;;;;;;;3.85;56.60;101796.09;5073373;28;20070;-52
2022/04/02 11:13:29;;;;;;;16.25;8.88;;;;;;;3.77;56.98;101790.97;5072775;28;20481;-53
2022/04/02 11:15:56;;;;;;;15.30;8.20;;;;;;;3.75;56.89;101795.84;5053617;28;20063;-51
2022/04/02 11:18:21;;;;;;;17.77;8.30;;;;;;;3.76;57.48;101800.25;5072525;28;20024;-53
2022/04/02 11:20:54;;;;;;;17.10;8.15;;;;;;;3.82;54.83;101795.75;5071179;28;20528;-50
2022/04/02 11:23:34;;;;;;;16.50;8.07;;;;;;;3.81;53.73;101792.16;5071891;28;20036;-50
2022/04/02 11:26:03;;;;;;;15.57;7.82;;;;;;;3.95;52.71;101794.66;5071291;28;20041;-53
2022/04/02 11:28:41;;;;;;;14.90;7.72;;;;;;;3.98;50.29;101803.25;5072504;28;20030;-53
2022/04/02 11:31:07;;;;;;;15.35;7.78;;;;;;;3.99;51.20;101788.47;5071356;28;20488;-53
2022/04/02 11:33:33;;;;;;;14.32;7.53;;;;;;;4.27;51.89;101791.53;5072269;28;20099;-52
2022/04/02 11:36:03;;;;;;;16.73;8.23;;;;;;;4.36;50.32;101784.63;5072094;28;20024;-54
2022/04/02 11:38:51;;;;;;;15.05;7.78;;;;;;;4.56;49.93;101786.13;5072527;28;20420;-53